createdAt,value
2022-12-28T00:01:18.504Z,24.08
2022-12-28T00:06:35.901Z,24.09
2022-12-28T00:09:03.788Z,24.09
2022-12-28T00:11:31.793Z,24.08
2022-12-28T00:14:00.173Z,24.07
2022-12-28T00:16:27.115Z,24.06
2022-12-28T00:18:55.022Z,24.08
2022-12-28T00:21:22.795Z,24.06
2022-12-28T00:23:53.702Z,24.07
2022-12-28T00:26:25.385Z,24.06
2022-12-28T00:28:53.514Z,24.06
2022-12-28T00:31:22.109Z,24.07
2022-12-28T00:33:48.743Z,24.03
2022-12-28T00:36:15.938Z,24.07
2022-12-28T00:38:43.346Z,24.04
2022-12-28T00:41:10.820Z,24.06
2022-12-28T00:43:37.865Z,24.07
2022-12-28T00:46:04.741Z,24.03
2022-12-28T00:48:34.075Z,23.99
2022-12-28T00:51:05.806Z,23.98
2022-12-28T00:53:32.931Z,23.96
2022-12-28T00:56:06.724Z,23.95
2022-12-28T00:58:33.659Z,23.93
2022-12-28T01:01:00.687Z,23.95
2022-12-28T01:03:28.604Z,23.95
2022-12-28T01:05:55.407Z,23.96
2022-12-28T01:08:22.088Z,23.96
2022-12-28T01:10:49.840Z,23.93
2022-12-28T01:13:16.416Z,23.98
2022-12-28T01:15:42.968Z,23.98
2022-12-28T01:18:09.596Z,23.98
2022-12-28T01:20:40.394Z,23.99
2022-12-28T01:23:07.296Z,23.98
2022-12-28T01:25:34.340Z,23.98
2022-12-28T01:28:01.082Z,23.97
2022-12-28T01:30:30.514Z,23.98
2022-12-28T01:33:01.118Z,23.99
2022-12-28T01:35:29.849Z,23.98
2022-12-28T01:37:57.171Z,23.98
2022-12-28T01:40:23.742Z,23.98
2022-12-28T01:42:50.314Z,23.98
2022-12-28T01:45:19.782Z,23.98
2022-12-28T01:47:49.959Z,23.98
2022-12-28T01:50:20.202Z,23.97
2022-12-28T01:52:55.994Z,23.95
2022-12-28T01:55:25.954Z,23.97
2022-12-28T01:58:03.062Z,23.96
2022-12-28T02:00:29.742Z,23.96
2022-12-28T02:03:09.164Z,23.95
2022-12-28T02:05:41.603Z,23.96
2022-12-28T02:08:23.259Z,23.96
2022-12-28T02:10:50.783Z,23.95
2022-12-28T02:13:18.253Z,23.94
2022-12-28T02:15:45.749Z,23.94
2022-12-28T02:18:13.463Z,23.94
2022-12-28T02:21:01.032Z,23.95
2022-12-28T02:23:38.303Z,23.94
2022-12-28T02:26:29.094Z,23.93
2022-12-28T02:29:17.944Z,23.96
2022-12-28T02:31:52.851Z,23.96
2022-12-28T02:34:47.429Z,23.82
2022-12-28T02:37:19.749Z,23.94
2022-12-28T02:39:55.121Z,23.95
2022-12-28T02:42:23.526Z,23.94
2022-12-28T02:45:08.644Z,23.99
2022-12-28T02:47:54.090Z,24.05
2022-12-28T02:50:32.684Z,24.11
2022-12-28T02:53:16.551Z,24.17
2022-12-28T02:56:10.579Z,24.23
2022-12-28T02:59:07.204Z,24.27
2022-12-28T03:01:56.461Z,24.37
2022-12-28T03:04:37.061Z,24.42
2022-12-28T03:07:33.470Z,24.48
2022-12-28T03:10:11.064Z,24.54
2022-12-28T03:12:54.427Z,24.59
2022-12-28T03:15:30.100Z,24.63
2022-12-28T03:18:21.406Z,24.68
2022-12-28T03:21:08.808Z,24.73
2022-12-28T03:23:54.536Z,24.78
2022-12-28T03:26:42.062Z,24.83
2022-12-28T03:29:31.393Z,24.88
2022-12-28T03:31:58.922Z,24.93
2022-12-28T03:34:25.528Z,24.97
2022-12-28T03:37:12.408Z,25.01
2022-12-28T03:39:51.183Z,25.06
2022-12-28T03:42:46.229Z,25.10
2022-12-28T03:45:46.389Z,25.15
2022-12-28T03:48:16.320Z,25.20
2022-12-28T03:50:46.090Z,25.24
2022-12-28T03:53:21.194Z,25.28
2022-12-28T03:55:50.313Z,25.33
2022-12-28T03:58:21.170Z,25.38
2022-12-28T04:00:49.520Z,25.45
2022-12-28T04:03:17.170Z,25.46
2022-12-28T04:05:45.618Z,25.52
2022-12-28T04:08:12.542Z,25.56
2022-12-28T04:10:39.841Z,25.62
2022-12-28T04:13:08.747Z,25.66
2022-12-28T04:15:45.039Z,25.73
2022-12-28T04:18:11.878Z,25.79
2022-12-28T04:20:39.142Z,25.83
2022-12-28T04:23:06.462Z,25.88
2022-12-28T04:25:34.035Z,25.93
2022-12-28T04:28:01.213Z,25.97
2022-12-28T04:30:46.791Z,26.03
2022-12-28T04:33:13.408Z,26.08
2022-12-28T04:35:42.723Z,26.06
2022-12-28T04:38:10.262Z,26.13
2022-12-28T04:40:36.819Z,26.17
2022-12-28T04:43:03.517Z,26.19
2022-12-28T04:45:30.437Z,26.24
2022-12-28T04:47:57.955Z,26.27
2022-12-28T04:50:26.168Z,26.31
2022-12-28T04:52:52.830Z,26.36
2022-12-28T04:55:32.483Z,26.41
2022-12-28T04:58:00.422Z,26.46
2022-12-28T05:00:27.282Z,26.46
2022-12-28T05:02:53.967Z,26.54
2022-12-28T05:05:20.575Z,26.58
2022-12-28T05:07:47.190Z,26.62
2022-12-28T05:10:13.703Z,26.66
2022-12-28T05:12:40.316Z,26.70
2022-12-28T05:15:07.299Z,26.75
2022-12-28T05:17:34.056Z,26.78
2022-12-28T05:20:00.696Z,26.81
2022-12-28T05:22:27.859Z,26.85
2022-12-28T05:24:54.387Z,26.89
2022-12-28T05:27:21.164Z,26.92
2022-12-28T05:29:47.747Z,26.95
2022-12-28T05:32:14.368Z,26.98
2022-12-28T05:34:42.076Z,27.02
2022-12-28T05:37:08.745Z,27.07
2022-12-28T05:39:35.344Z,27.10
2022-12-28T05:42:02.765Z,27.13
2022-12-28T05:44:30.323Z,27.16
2022-12-28T05:46:58.046Z,27.21
2022-12-28T05:49:24.647Z,27.23
2022-12-28T05:51:52.342Z,27.26
2022-12-28T05:54:19.763Z,27.30
2022-12-28T05:56:46.620Z,27.33
2022-12-28T05:59:13.739Z,27.35
2022-12-28T06:01:41.257Z,27.38
2022-12-28T06:04:15.210Z,27.41
2022-12-28T06:06:42.166Z,27.46
2022-12-28T06:09:08.733Z,27.49
2022-12-28T06:11:35.379Z,27.51
2022-12-28T06:14:03.829Z,27.51
2022-12-28T06:16:33.039Z,27.57
2022-12-28T06:19:00.137Z,27.61
2022-12-28T06:21:32.077Z,27.62
2022-12-28T06:24:00.052Z,27.65
2022-12-28T06:26:28.698Z,27.60
2022-12-28T06:28:55.965Z,27.57
2022-12-28T06:31:24.584Z,27.61
2022-12-28T06:33:56.227Z,27.62
2022-12-28T06:36:30.794Z,27.64
2022-12-28T06:38:58.901Z,27.64
2022-12-28T06:41:27.382Z,27.52
2022-12-28T06:43:54.126Z,27.36
2022-12-28T06:46:21.872Z,27.21
2022-12-28T06:48:50.509Z,27.08
2022-12-28T06:51:19.579Z,26.97
2022-12-28T06:53:47.616Z,26.89
2022-12-28T06:56:16.567Z,26.77
2022-12-28T06:58:43.725Z,26.73
2022-12-28T07:01:18.981Z,26.68
2022-12-28T07:03:47.235Z,26.65
2022-12-28T07:06:15.731Z,26.61
2022-12-28T07:08:43.282Z,26.56
2022-12-28T07:11:15.436Z,26.48
2022-12-28T07:13:42.270Z,26.49
2022-12-28T07:16:14.462Z,26.47
2022-12-28T07:18:42.109Z,26.45
2022-12-28T07:21:14.303Z,26.54
2022-12-28T07:23:41.133Z,26.64
2022-12-28T07:26:09.931Z,26.79
2022-12-28T07:28:38.359Z,26.88
2022-12-28T07:31:06.823Z,26.98
2022-12-28T07:33:34.843Z,27.07
2022-12-28T07:36:08.547Z,27.15
2022-12-28T07:38:35.420Z,27.23
2022-12-28T07:41:03.215Z,27.26
2022-12-28T07:43:30.435Z,27.30
2022-12-28T07:46:09.279Z,27.42
2022-12-28T07:48:37.159Z,27.48
2022-12-28T07:51:16.237Z,27.48
2022-12-28T07:53:44.643Z,27.57
2022-12-28T07:56:11.892Z,27.58
2022-12-28T07:58:38.875Z,27.60
2022-12-28T08:01:13.762Z,27.58
2022-12-28T08:03:41.382Z,27.57
2022-12-28T08:06:12.052Z,27.57
2022-12-28T08:08:41.317Z,27.56
2022-12-28T08:11:13.114Z,27.58
2022-12-28T08:13:41.724Z,27.58
2022-12-28T08:16:12.887Z,27.55
2022-12-28T08:18:40.528Z,27.59
2022-12-28T08:21:21.885Z,27.56
2022-12-28T08:23:49.599Z,27.57
2022-12-28T08:26:19.939Z,27.55
2022-12-28T08:28:49.023Z,27.51
2022-12-28T08:31:27.052Z,27.48
2022-12-28T08:33:55.278Z,27.47
2022-12-28T08:36:22.041Z,27.45
2022-12-28T08:38:48.726Z,27.45
2022-12-28T08:41:17.630Z,27.47
2022-12-28T08:43:45.669Z,27.47
2022-12-28T08:46:16.328Z,27.46
2022-12-28T08:48:43.170Z,27.42
2022-12-28T08:51:15.123Z,27.42
2022-12-28T08:53:42.360Z,27.41
2022-12-28T08:56:12.987Z,27.41
2022-12-28T08:58:40.906Z,27.40
2022-12-28T09:01:13.775Z,27.38
2022-12-28T09:03:42.561Z,27.37
2022-12-28T09:06:14.640Z,27.36
2022-12-28T09:08:42.573Z,27.33
2022-12-28T09:11:13.174Z,27.34
2022-12-28T09:13:40.302Z,27.34
2022-12-28T09:16:15.293Z,27.33
2022-12-28T09:18:43.408Z,27.28
2022-12-28T09:21:19.769Z,27.28
2022-12-28T09:23:46.882Z,27.18
2022-12-28T09:26:16.442Z,27.12
2022-12-28T09:28:50.888Z,27.09
2022-12-28T09:31:18.843Z,27.02
2022-12-28T09:36:47.634Z,26.99
2022-12-28T09:39:17.678Z,27.02
2022-12-28T09:41:57.893Z,27.01
2022-12-28T09:44:36.309Z,27.01
2022-12-28T09:47:12.488Z,27.00
2022-12-28T09:49:50.403Z,26.98
2022-12-28T09:52:49.669Z,26.97
2022-12-28T09:55:18.469Z,26.97
2022-12-28T09:57:50.549Z,26.96
2022-12-28T10:00:25.771Z,26.95
2022-12-28T10:02:59.695Z,26.94
2022-12-28T10:05:27.850Z,26.93
2022-12-28T10:07:55.232Z,26.91
2022-12-28T10:10:23.004Z,26.89
2022-12-28T10:12:50.390Z,26.85
2022-12-28T10:15:17.544Z,26.86
2022-12-28T10:17:44.998Z,26.86
2022-12-28T10:20:17.162Z,26.85
2022-12-28T10:22:50.044Z,26.84
2022-12-28T10:25:20.995Z,26.82
2022-12-28T10:27:47.582Z,26.81
2022-12-28T10:30:26.624Z,26.80
2022-12-28T10:33:02.144Z,26.76
2022-12-28T10:35:30.665Z,26.79
2022-12-28T10:38:06.088Z,26.77
2022-12-28T10:40:35.448Z,26.76
2022-12-28T10:43:07.033Z,26.75
2022-12-28T10:45:46.644Z,26.69
2022-12-28T10:48:16.780Z,26.51
2022-12-28T10:50:56.920Z,26.29
2022-12-28T10:53:32.372Z,26.13
2022-12-28T10:56:11.062Z,25.95
2022-12-28T10:58:41.883Z,25.80
2022-12-28T11:01:14.416Z,25.68
2022-12-28T11:03:44.448Z,25.57
2022-12-28T11:06:14.221Z,25.49
2022-12-28T11:08:42.160Z,25.43
2022-12-28T11:11:21.010Z,25.37
2022-12-28T11:13:55.639Z,25.33
2022-12-28T11:16:22.811Z,25.25
2022-12-28T11:18:49.699Z,25.16
2022-12-28T11:21:20.253Z,25.07
2022-12-28T11:23:48.322Z,24.98
2022-12-28T11:26:14.975Z,24.98
2022-12-28T11:28:42.864Z,24.98
2022-12-28T11:31:18.654Z,24.96
2022-12-28T11:33:46.127Z,24.97
2022-12-28T11:36:15.415Z,24.93
2022-12-28T11:38:44.262Z,24.92
2022-12-28T11:41:34.107Z,24.91
2022-12-28T11:44:04.541Z,24.89
2022-12-28T11:46:31.039Z,24.86
2022-12-28T11:49:03.610Z,24.83
2022-12-28T11:51:36.633Z,24.82
2022-12-28T11:54:38.334Z,24.80
2022-12-28T11:57:05.142Z,24.79
2022-12-28T11:59:35.760Z,24.77
2022-12-28T12:02:07.964Z,24.74
2022-12-28T12:04:37.422Z,24.74
2022-12-28T12:07:04.493Z,24.73
2022-12-28T12:09:32.707Z,24.71
2022-12-28T12:12:29.749Z,24.69
2022-12-28T12:15:02.837Z,24.69
2022-12-28T12:17:42.685Z,24.68
2022-12-28T12:21:00.078Z,24.67
2022-12-28T12:23:39.340Z,24.61
2022-12-28T12:26:27.630Z,24.66
2022-12-28T12:29:07.966Z,24.66
2022-12-28T12:31:41.185Z,24.62
2022-12-28T12:34:19.558Z,24.62
2022-12-28T12:37:11.651Z,24.61
2022-12-28T12:40:00.433Z,24.60
2022-12-28T12:42:45.296Z,24.59
2022-12-28T12:45:45.191Z,24.58
2022-12-28T12:48:29.717Z,24.56
2022-12-28T12:51:19.539Z,24.56
2022-12-28T12:54:01.556Z,24.67
2022-12-28T12:56:51.395Z,24.80
2022-12-28T12:59:27.286Z,24.90
2022-12-28T13:02:16.906Z,24.91
2022-12-28T13:04:46.052Z,24.92
2022-12-28T13:07:26.522Z,24.96
2022-12-28T13:09:55.118Z,25.00
2022-12-28T13:12:21.831Z,25.02
2022-12-28T13:15:02.280Z,25.06
2022-12-28T13:17:31.845Z,25.09
2022-12-28T13:20:18.312Z,25.07
2022-12-28T13:22:46.241Z,25.08
2022-12-28T13:25:32.399Z,25.10
2022-12-28T13:28:01.793Z,25.12
2022-12-28T13:30:29.718Z,25.14
2022-12-28T13:32:59.307Z,25.12
2022-12-28T13:35:28.078Z,25.17
2022-12-28T13:38:03.896Z,25.18
2022-12-28T13:40:32.017Z,25.21
2022-12-28T13:43:30.263Z,25.22
2022-12-28T13:46:08.073Z,25.21
2022-12-28T13:48:42.038Z,25.22
2022-12-28T13:51:12.443Z,25.24
2022-12-28T13:53:44.554Z,25.24
2022-12-28T13:56:13.473Z,25.27
2022-12-28T13:58:48.400Z,25.27
2022-12-28T14:01:18.245Z,25.28
2022-12-28T14:03:46.557Z,25.25
2022-12-28T14:06:15.594Z,25.30
2022-12-28T14:08:42.496Z,25.31
2022-12-28T14:11:09.927Z,25.31
2022-12-28T14:13:38.337Z,25.32
2022-12-28T14:16:05.775Z,25.32
2022-12-28T14:18:36.282Z,25.31
2022-12-28T14:21:04.185Z,25.33
2022-12-28T14:23:36.524Z,25.34
2022-12-28T14:26:05.770Z,25.34
2022-12-28T14:28:39.212Z,25.29
2022-12-28T14:31:08.351Z,25.33
2022-12-28T14:33:37.540Z,25.34
2022-12-28T14:36:06.106Z,25.35
2022-12-28T14:38:41.077Z,25.37
2022-12-28T14:41:07.683Z,25.38
2022-12-28T14:43:36.005Z,25.38
2022-12-28T14:46:30.944Z,25.38
2022-12-28T14:48:58.996Z,25.40
2022-12-28T14:51:35.825Z,25.39
2022-12-28T14:54:25.997Z,25.40
2022-12-28T14:57:01.632Z,25.40
2022-12-28T14:59:31.780Z,25.39
2022-12-28T15:01:58.524Z,25.41
2022-12-28T15:04:46.163Z,25.41
2022-12-28T15:07:13.256Z,25.42
2022-12-28T15:09:40.412Z,25.36
2022-12-28T15:12:20.483Z,25.43
2022-12-28T15:14:48.253Z,25.37
2022-12-28T15:17:15.505Z,25.31
2022-12-28T15:19:43.030Z,25.34
2022-12-28T15:22:09.891Z,25.36
2022-12-28T15:24:36.597Z,25.36
2022-12-28T15:27:03.612Z,25.32
2022-12-28T15:32:16.843Z,25.38
2022-12-28T15:34:43.461Z,25.39
2022-12-28T15:37:10.027Z,25.38
2022-12-28T15:39:36.655Z,25.39
2022-12-28T15:42:03.511Z,25.38
2022-12-28T15:44:30.123Z,25.38
2022-12-28T15:46:56.829Z,25.38
2022-12-28T15:49:23.407Z,25.38
2022-12-28T15:51:50.024Z,25.38
2022-12-28T15:54:16.664Z,25.37
2022-12-28T15:56:43.294Z,25.38
2022-12-28T15:59:13.924Z,25.36
2022-12-28T16:01:43.102Z,25.35
2022-12-28T16:04:11.475Z,25.38
2022-12-28T16:06:43.904Z,25.37
2022-12-28T16:09:12.465Z,25.37
2022-12-28T16:11:41.554Z,25.38
2022-12-28T16:14:14.721Z,25.37
2022-12-28T16:16:42.143Z,25.36
2022-12-28T16:19:12.482Z,25.36
2022-12-28T16:21:40.102Z,25.36
2022-12-28T16:24:07.514Z,25.35
2022-12-28T16:26:34.183Z,25.34
2022-12-28T16:29:01.371Z,25.34
2022-12-28T16:31:31.086Z,25.33
2022-12-28T16:33:59.858Z,25.32
2022-12-28T16:36:27.006Z,25.31
2022-12-28T16:38:53.855Z,25.32
2022-12-28T16:41:21.210Z,25.31
2022-12-28T16:43:49.513Z,25.30
2022-12-28T16:46:16.780Z,25.30
2022-12-28T16:48:43.406Z,25.30
2022-12-28T16:51:10.047Z,25.29
2022-12-28T16:53:38.594Z,25.29
2022-12-28T16:56:06.078Z,25.28
2022-12-28T16:58:33.357Z,25.28
2022-12-28T17:01:08.574Z,25.21
2022-12-28T17:03:37.267Z,25.27
2022-12-28T17:06:04.167Z,25.26
2022-12-28T17:08:30.892Z,25.26
2022-12-28T17:10:59.795Z,25.27
2022-12-28T17:13:26.593Z,25.26
2022-12-28T17:15:53.309Z,25.25
2022-12-28T17:18:19.958Z,25.25
2022-12-28T17:20:46.505Z,25.24
2022-12-28T17:23:13.297Z,25.23
2022-12-28T17:25:39.962Z,25.24
2022-12-28T17:28:06.604Z,25.24
2022-12-28T17:30:33.845Z,25.18
2022-12-28T17:33:00.467Z,25.22
2022-12-28T17:35:27.476Z,25.21
2022-12-28T17:37:54.026Z,25.19
2022-12-28T17:40:20.724Z,25.17
2022-12-28T17:42:47.377Z,25.18
2022-12-28T17:45:13.944Z,25.17
2022-12-28T17:47:40.599Z,25.14
2022-12-28T17:50:08.300Z,25.13
2022-12-28T17:52:35.219Z,25.09
2022-12-28T17:55:03.402Z,25.08
2022-12-28T17:57:32.848Z,25.09
2022-12-28T18:00:04.163Z,25.09
2022-12-28T18:02:39.445Z,25.06
2022-12-28T18:05:07.369Z,25.07
2022-12-28T18:07:34.117Z,25.06
2022-12-28T18:10:00.731Z,25.02
2022-12-28T18:12:27.735Z,25.03
2022-12-28T18:14:54.269Z,25.03
2022-12-28T18:17:23.475Z,25.04
2022-12-28T18:19:52.795Z,25.04
2022-12-28T18:22:20.739Z,25.04
2022-12-28T18:24:47.394Z,25.04
2022-12-28T18:27:13.929Z,25.03
2022-12-28T18:29:42.907Z,25.02
2022-12-28T18:32:09.502Z,25.01
2022-12-28T18:34:36.219Z,25.01
2022-12-28T18:37:02.937Z,25.00
2022-12-28T18:39:29.496Z,24.98
2022-12-28T18:41:56.270Z,24.98
2022-12-28T18:44:23.911Z,24.98
2022-12-28T18:46:50.558Z,24.98
2022-12-28T18:49:17.714Z,24.97
2022-12-28T18:51:44.218Z,24.97
2022-12-28T18:54:10.816Z,24.97
2022-12-28T18:56:37.408Z,24.96
2022-12-28T18:59:04.075Z,24.96
2022-12-28T19:02:05.195Z,24.95
2022-12-28T19:04:17.819Z,24.94
2022-12-28T19:06:44.941Z,24.94
2022-12-28T19:09:12.316Z,24.93
2022-12-28T19:11:40.212Z,24.89
2022-12-28T19:14:09.746Z,24.92
2022-12-28T19:16:36.548Z,24.89
2022-12-28T19:19:03.763Z,24.90
2022-12-28T19:21:36.200Z,24.90
2022-12-28T19:24:05.121Z,24.88
2022-12-28T19:26:32.580Z,24.89
2022-12-28T19:28:59.305Z,24.88
2022-12-28T19:31:26.736Z,24.88
2022-12-28T19:33:53.668Z,24.87
2022-12-28T19:36:20.277Z,24.86
2022-12-28T19:38:47.203Z,24.84
2022-12-28T19:41:15.474Z,24.86
2022-12-28T19:43:42.966Z,24.85
2022-12-28T19:46:30.451Z,24.83
2022-12-28T19:49:01.544Z,24.83
2022-12-28T19:51:31.681Z,24.82
2022-12-28T19:53:59.244Z,24.82
2022-12-28T19:56:25.948Z,24.81
2022-12-28T19:58:54.433Z,24.81
2022-12-28T20:01:25.553Z,24.80
2022-12-28T20:03:52.828Z,24.79
2022-12-28T20:06:22.290Z,24.78
2022-12-28T20:08:54.080Z,24.79
2022-12-28T20:11:21.918Z,24.76
2022-12-28T20:13:59.401Z,24.76
2022-12-28T20:16:27.942Z,24.77
2022-12-28T20:18:54.887Z,24.72
2022-12-28T20:21:23.612Z,24.73
2022-12-28T20:23:51.002Z,24.73
2022-12-28T20:26:18.926Z,24.74
2022-12-28T20:28:46.389Z,24.73
2022-12-28T20:31:14.375Z,24.72
2022-12-28T20:33:41.976Z,24.72
2022-12-28T20:36:13.249Z,24.69
2022-12-28T20:38:39.882Z,24.72
2022-12-28T20:41:34.895Z,24.72
2022-12-28T20:44:09.683Z,24.72
2022-12-28T20:46:36.431Z,24.73
2022-12-28T20:49:03.560Z,24.73
2022-12-28T20:51:30.243Z,24.73
2022-12-28T20:53:56.910Z,24.72
2022-12-28T20:56:23.806Z,24.73
2022-12-28T20:58:50.553Z,24.69
2022-12-28T21:01:17.393Z,24.71
2022-12-28T21:03:45.445Z,24.73
2022-12-28T21:06:12.377Z,24.73
2022-12-28T21:08:38.916Z,24.74
2022-12-28T21:11:06.829Z,24.74
2022-12-28T21:13:33.544Z,24.74
2022-12-28T21:16:04.591Z,24.73
2022-12-28T21:18:35.572Z,24.57
2022-12-28T21:21:02.370Z,24.73
2022-12-28T21:23:31.265Z,24.72
2022-12-28T21:26:05.943Z,24.73
2022-12-28T21:28:33.744Z,24.73
2022-12-28T21:31:03.550Z,24.73
2022-12-28T21:33:30.791Z,24.68
2022-12-28T21:36:09.820Z,24.73
2022-12-28T21:38:38.761Z,24.72
2022-12-28T21:41:08.037Z,24.72
2022-12-28T21:43:34.856Z,24.71
2022-12-28T21:46:03.604Z,24.69
2022-12-28T21:48:32.369Z,24.60
2022-12-28T21:51:27.578Z,24.63
2022-12-28T21:53:54.756Z,24.61
2022-12-28T21:56:21.281Z,24.63
2022-12-28T21:58:48.064Z,24.58
2022-12-28T22:01:33.016Z,24.62
2022-12-28T22:04:18.102Z,24.63
2022-12-28T22:06:44.700Z,24.64
2022-12-28T22:09:29.675Z,24.66
2022-12-28T22:12:17.412Z,24.65
2022-12-28T22:14:44.669Z,24.64
2022-12-28T22:17:14.461Z,24.64
2022-12-28T22:19:41.385Z,24.63
2022-12-28T22:22:08.116Z,24.63
2022-12-28T22:24:34.960Z,24.62
2022-12-28T22:27:02.399Z,24.62
2022-12-28T22:29:29.066Z,24.61
2022-12-28T22:31:55.727Z,24.56
2022-12-28T22:34:22.393Z,24.60
2022-12-28T22:36:48.979Z,24.59
2022-12-28T22:39:15.940Z,24.60
2022-12-28T22:41:42.676Z,24.59
2022-12-28T22:44:09.814Z,24.59
2022-12-28T22:46:36.464Z,24.59
2022-12-28T22:49:03.258Z,24.56
2022-12-28T22:51:29.807Z,24.59
2022-12-28T22:53:56.322Z,24.57
2022-12-28T22:56:23.600Z,24.57
2022-12-28T22:58:50.191Z,24.56
2022-12-28T23:01:18.618Z,24.51
2022-12-28T23:03:47.119Z,24.57
2022-12-28T23:06:15.675Z,24.57
2022-12-28T23:08:42.375Z,24.56
2022-12-28T23:11:32.204Z,24.56
2022-12-28T23:14:18.819Z,24.56
2022-12-28T23:16:45.497Z,24.56
2022-12-28T23:19:31.042Z,24.54
2022-12-28T23:22:16.402Z,24.56
2022-12-28T23:25:01.640Z,24.56
2022-12-28T23:27:38.688Z,24.58
2022-12-28T23:30:08.533Z,24.57
2022-12-28T23:32:35.397Z,24.53
2022-12-28T23:35:04.734Z,24.54
2022-12-28T23:37:31.530Z,24.54
2022-12-28T23:39:58.114Z,24.53
2022-12-28T23:42:24.701Z,24.51
2022-12-28T23:44:51.563Z,24.53
2022-12-28T23:47:19.274Z,24.52
2022-12-28T23:49:48.115Z,24.51
2022-12-28T23:52:15.119Z,24.51
2022-12-28T23:54:41.748Z,24.50
2022-12-28T23:57:08.337Z,24.50
2022-12-28T23:59:34.969Z,24.50
